createdAt,value
2022-09-26T00:03:34.929Z,100125.59
2022-09-26T00:07:37.021Z,100129.09
2022-09-26T00:11:38.797Z,100089.66
2022-09-26T00:15:40.450Z,100117.91
2022-09-26T00:19:41.940Z,100122.19
2022-09-26T00:23:43.569Z,100117.91
2022-09-26T00:27:45.410Z,100110.25
2022-09-26T00:31:48.922Z,100118.78
2022-09-26T00:35:51.952Z,100113.56
2022-09-26T00:39:53.545Z,100113.53
2022-09-26T00:43:57.345Z,100103.28
2022-09-26T00:48:03.653Z,100111.84
2022-09-26T00:52:23.840Z,100115.34
2022-09-26T00:56:30.560Z,100113.69
2022-09-26T01:00:32.766Z,100111.25
2022-09-26T01:04:38.238Z,100112.34
2022-09-26T01:08:44.312Z,100107.31
2022-09-26T01:12:46.336Z,100101.41
2022-09-26T01:16:51.161Z,100102.25
2022-09-26T01:21:07.747Z,100101.38
2022-09-26T01:25:15.375Z,100087.66
2022-09-26T01:29:39.152Z,100088.38
2022-09-26T01:33:49.586Z,100077.88
2022-09-26T01:38:20.178Z,100079.47
2022-09-26T01:42:27.901Z,100075.78
2022-09-26T01:46:57.116Z,100073.91
2022-09-26T01:51:05.120Z,100075.38
2022-09-26T01:55:12.259Z,100069.34
2022-09-26T01:59:22.824Z,100059.00
2022-09-26T02:03:31.555Z,100057.13
2022-09-26T02:07:46.021Z,100054.38
2022-09-26T02:11:50.673Z,100050.75
2022-09-26T02:15:58.613Z,100049.88
2022-09-26T02:20:05.730Z,100054.19
2022-09-26T02:24:07.541Z,100054.88
2022-09-26T02:28:10.311Z,100045.69
2022-09-26T02:32:16.408Z,100052.06
2022-09-26T02:36:20.629Z,100039.50
2022-09-26T02:40:28.343Z,100039.59
2022-09-26T02:45:11.925Z,100027.47
2022-09-26T02:49:38.807Z,100022.97
2022-09-26T02:54:11.370Z,100019.31
2022-09-26T02:58:59.675Z,100011.34
2022-09-26T03:03:13.611Z,99996.63
2022-09-26T03:07:21.552Z,99987.94
2022-09-26T03:11:25.693Z,99986.94
2022-09-26T03:15:29.738Z,99979.13
2022-09-26T03:20:01.727Z,99983.13
2022-09-26T03:24:05.196Z,99991.47
2022-09-26T03:28:07.533Z,99990.56
2022-09-26T03:32:10.166Z,99990.53
2022-09-26T03:36:12.470Z,99977.59
2022-09-26T03:40:14.352Z,99973.19
2022-09-26T03:44:45.211Z,99973.88
2022-09-26T03:48:46.749Z,99957.56
2022-09-26T03:52:49.400Z,99951.47
2022-09-26T03:56:50.983Z,99950.53
2022-09-26T04:00:52.786Z,99945.34
2022-09-26T04:04:54.526Z,99929.88
2022-09-26T04:08:56.324Z,99930.69
2022-09-26T04:12:58.008Z,99929.75
2022-09-26T04:17:00.212Z,99910.06
2022-09-26T04:21:10.140Z,99916.88
2022-09-26T04:25:12.595Z,99919.34
2022-09-26T04:29:16.005Z,99913.31
2022-09-26T04:33:29.441Z,99911.53
2022-09-26T04:37:42.139Z,99902.84
2022-09-26T04:41:43.970Z,99897.66
2022-09-26T04:45:45.804Z,99889.03
2022-09-26T04:49:48.309Z,99882.13
2022-09-26T04:53:50.457Z,99880.22
2022-09-26T04:57:55.534Z,99881.00
2022-09-26T05:01:57.499Z,99879.28
2022-09-26T05:06:08.967Z,99881.78
2022-09-26T05:10:11.163Z,99876.66
2022-09-26T05:14:20.753Z,99876.72
2022-09-26T05:18:24.910Z,99876.72
2022-09-26T05:22:30.168Z,99873.28
2022-09-26T05:26:44.159Z,99872.28
2022-09-26T05:30:45.767Z,99872.28
2022-09-26T05:34:48.858Z,99859.47
2022-09-26T05:38:53.858Z,99851.81
2022-09-26T05:43:01.217Z,99850.94
2022-09-26T05:47:02.836Z,99849.16
2022-09-26T05:51:09.833Z,99856.81
2022-09-26T05:55:13.984Z,99852.63
2022-09-26T05:59:34.585Z,99831.44
2022-09-26T06:04:10.242Z,99825.59
2022-09-26T06:08:27.851Z,99830.00
2022-09-26T06:12:50.713Z,99826.66
2022-09-26T06:16:52.854Z,99822.63
2022-09-26T06:20:54.571Z,99821.88
2022-09-26T06:24:56.501Z,99821.25
2022-09-26T06:29:00.649Z,99824.81
2022-09-26T06:33:04.165Z,99809.59
2022-09-26T06:37:35.102Z,99804.50
2022-09-26T06:41:36.738Z,99796.88
2022-09-26T06:45:51.809Z,99798.72
2022-09-26T06:50:19.671Z,99803.16
2022-09-26T06:54:27.181Z,99796.53
2022-09-26T06:58:28.897Z,99792.38
2022-09-26T07:02:53.039Z,99790.69
2022-09-26T07:07:15.456Z,99806.13
2022-09-26T07:15:40.073Z,99793.41
2022-09-26T07:20:00.681Z,99784.84
2022-09-26T07:24:20.995Z,99782.38
2022-09-26T07:28:22.596Z,99782.53
2022-09-26T07:32:25.818Z,99785.28
2022-09-26T07:36:33.077Z,99779.41
2022-09-26T07:40:34.646Z,99771.84
2022-09-26T07:49:16.798Z,99757.66
2022-09-26T07:53:50.592Z,99765.50
2022-09-26T07:58:25.978Z,99751.13
2022-09-26T08:02:52.738Z,99752.41
2022-09-26T08:06:56.514Z,99740.94
2022-09-26T08:11:03.392Z,99743.72
2022-09-26T08:15:21.263Z,99747.09
2022-09-26T08:19:25.590Z,99738.53
2022-09-26T08:23:29.329Z,99727.50
2022-09-26T08:27:51.595Z,99733.06
2022-09-26T08:31:54.638Z,99736.72
2022-09-26T08:36:03.507Z,99729.16
2022-09-26T08:40:32.319Z,99727.00
2022-09-26T08:45:02.317Z,99719.06
2022-09-26T08:49:52.754Z,99721.28
2022-09-26T08:54:01.240Z,99725.75
2022-09-26T08:58:34.847Z,99721.44
2022-09-26T09:03:00.168Z,99717.78
2022-09-26T09:07:07.375Z,99710.63
2022-09-26T09:11:23.638Z,99718.47
2022-09-26T09:16:00.757Z,99704.09
2022-09-26T09:20:53.195Z,99702.56
2022-09-26T09:25:24.782Z,99696.50
2022-09-26T09:29:57.270Z,99689.44
2022-09-26T09:34:29.398Z,99692.75
2022-09-26T09:39:11.467Z,99680.81
2022-09-26T09:43:57.386Z,99663.72
2022-09-26T09:48:00.561Z,99674.16
2022-09-26T09:52:24.522Z,99659.84
2022-09-26T09:56:52.080Z,99644.63
2022-09-26T10:01:13.572Z,99642.25
2022-09-26T10:05:30.039Z,99638.97
2022-09-26T10:09:41.910Z,99628.69
2022-09-26T10:14:07.432Z,99608.94
2022-09-26T10:18:29.508Z,99608.06
2022-09-26T10:22:47.183Z,99601.19
2022-09-26T10:26:58.072Z,99595.13
2022-09-26T10:31:41.406Z,99585.59
2022-09-26T10:35:54.488Z,99583.84
2022-09-26T10:40:23.091Z,99576.84
2022-09-26T10:44:34.905Z,99572.44
2022-09-26T10:48:48.798Z,99572.47
2022-09-26T10:53:11.291Z,99572.56
2022-09-26T10:57:28.340Z,99574.41
2022-09-26T11:01:38.523Z,99570.16
2022-09-26T11:06:00.135Z,99576.19
2022-09-26T11:10:17.258Z,99565.81
2022-09-26T11:14:45.978Z,99561.56
2022-09-26T11:18:52.380Z,99564.97
2022-09-26T11:23:14.321Z,99554.66
2022-09-26T11:32:00.280Z,99528.00
2022-09-26T11:36:36.191Z,99515.94
2022-09-26T11:41:07.834Z,99506.44
2022-09-26T11:45:23.583Z,99486.59
2022-09-26T11:50:13.021Z,99477.91
2022-09-26T11:55:15.249Z,99471.78
2022-09-26T11:59:51.605Z,99453.56
2022-09-26T12:04:13.213Z,99460.44
2022-09-26T12:08:52.923Z,99446.63
2022-09-26T12:13:21.860Z,99444.00
2022-09-26T12:17:48.791Z,99440.69
2022-09-26T12:22:29.783Z,99441.63
2022-09-26T12:26:53.657Z,99436.38
2022-09-26T12:31:14.010Z,99410.25
2022-09-26T12:35:36.467Z,99406.63
2022-09-26T12:40:06.951Z,99405.66
2022-09-26T12:44:34.330Z,99402.91
2022-09-26T12:48:47.399Z,99401.25
2022-09-26T12:53:40.323Z,99391.03
2022-09-26T12:58:07.593Z,99382.50
2022-09-26T13:02:27.528Z,99385.97
2022-09-26T13:07:18.431Z,99381.69
2022-09-26T13:11:55.504Z,99396.75
2022-09-26T13:16:28.246Z,99397.91
2022-09-26T13:20:55.248Z,99395.38
2022-09-26T13:25:15.151Z,99384.22
2022-09-26T13:29:25.184Z,99372.16
2022-09-26T13:33:46.565Z,99364.44
2022-09-26T13:38:16.248Z,99366.16
2022-09-26T13:43:05.084Z,99370.50
2022-09-26T13:47:15.904Z,99379.09
2022-09-26T13:51:39.375Z,99366.16
2022-09-26T13:55:47.970Z,99348.06
2022-09-26T13:59:54.475Z,99334.19
2022-09-26T14:04:35.181Z,99325.44
2022-09-26T14:08:55.952Z,99319.38
2022-09-26T14:13:06.846Z,99324.63
2022-09-26T14:17:43.063Z,99320.41
2022-09-26T14:22:03.450Z,99314.41
2022-09-26T14:26:08.127Z,99309.28
2022-09-26T14:30:14.018Z,99307.56
2022-09-26T14:34:23.851Z,99311.84
2022-09-26T14:38:27.794Z,99284.25
2022-09-26T14:42:33.117Z,99284.16
2022-09-26T14:46:41.587Z,99266.84
2022-09-26T14:51:02.611Z,99263.31
2022-09-26T14:55:08.723Z,99255.66
2022-09-26T14:59:38.539Z,99249.63
2022-09-26T15:03:51.077Z,99233.22
2022-09-26T15:08:04.574Z,99229.56
2022-09-26T15:12:25.310Z,99227.78
2022-09-26T15:16:48.428Z,99224.28
2022-09-26T15:21:15.410Z,99219.09
2022-09-26T15:25:23.347Z,99207.09
2022-09-26T15:29:29.544Z,99209.72
2022-09-26T15:33:39.213Z,99197.69
2022-09-26T15:37:49.512Z,99190.09
2022-09-26T15:42:11.177Z,99185.06
2022-09-26T15:46:26.665Z,99190.31
2022-09-26T15:51:07.094Z,99180.94
2022-09-26T15:55:19.987Z,99177.53
2022-09-26T15:59:41.323Z,99174.97
2022-09-26T16:04:04.570Z,99180.19
2022-09-26T16:08:26.064Z,99166.50
2022-09-26T16:12:31.962Z,99175.09
2022-09-26T16:16:35.013Z,99176.00
2022-09-26T16:20:38.438Z,99165.69
2022-09-26T16:24:42.810Z,99166.59
2022-09-26T16:28:52.705Z,99170.91
2022-09-26T16:33:19.542Z,99159.78
2022-09-26T16:37:26.375Z,99154.59
2022-09-26T16:46:13.843Z,99147.75
2022-09-26T16:50:16.640Z,99138.31
2022-09-26T16:54:22.701Z,99132.28
2022-09-26T16:58:27.277Z,99130.59
2022-09-26T17:02:35.360Z,99110.81
2022-09-26T17:06:39.200Z,99109.13
2022-09-26T17:10:44.928Z,99109.13
2022-09-26T17:14:49.805Z,99094.53
2022-09-26T17:18:51.592Z,99101.41
2022-09-26T17:23:22.236Z,99086.84
2022-09-26T17:27:39.941Z,99082.53
2022-09-26T17:31:47.726Z,99072.22
2022-09-26T17:35:49.813Z,99070.50
2022-09-26T17:39:55.267Z,99065.34
2022-09-26T17:44:00.320Z,99051.59
2022-09-26T17:48:07.084Z,99053.31
2022-09-26T17:52:34.761Z,99041.31
2022-09-26T17:56:42.007Z,99039.59
2022-09-26T18:00:47.462Z,99047.34
2022-09-26T18:04:55.285Z,99044.75
2022-09-26T18:09:04.227Z,99036.16
2022-09-26T18:13:18.476Z,99037.03
2022-09-26T18:17:23.121Z,99031.91
2022-09-26T18:21:26.674Z,99042.19
2022-09-26T18:25:33.236Z,99031.06
2022-09-26T18:29:46.670Z,99035.38
2022-09-26T18:33:51.654Z,99045.69
2022-09-26T18:37:55.924Z,99044.88
2022-09-26T18:42:06.291Z,99061.22
2022-09-26T18:46:30.898Z,99056.06
2022-09-26T18:50:37.868Z,99062.91
2022-09-26T18:54:45.409Z,99056.88
2022-09-26T18:58:55.329Z,99056.00
2022-09-26T19:03:00.414Z,99052.53
2022-09-26T19:07:11.252Z,99044.84
2022-09-26T19:11:20.020Z,99052.59
2022-09-26T19:15:22.369Z,99061.16
2022-09-26T19:19:25.414Z,99061.09
2022-09-26T19:23:34.904Z,99061.13
2022-09-26T19:27:49.733Z,99068.81
2022-09-26T19:31:53.059Z,99061.09
2022-09-26T19:35:58.179Z,99075.66
2022-09-26T19:40:01.347Z,99056.81
2022-09-26T19:44:03.611Z,99057.66
2022-09-26T19:48:21.067Z,99057.66
2022-09-26T19:52:28.098Z,99061.94
2022-09-26T19:56:35.591Z,99044.78
2022-09-26T20:00:45.797Z,99033.66
2022-09-26T20:04:48.232Z,99035.31
2022-09-26T20:09:01.620Z,99035.28
2022-09-26T20:13:09.554Z,99008.69
2022-09-26T20:17:25.970Z,99012.94
2022-09-26T20:21:33.927Z,99008.63
2022-09-26T20:25:46.622Z,99002.66
2022-09-26T20:30:09.996Z,99005.19
2022-09-26T20:34:12.326Z,98997.44
2022-09-26T20:38:27.646Z,98992.25
2022-09-26T20:42:37.531Z,98994.84
2022-09-26T20:46:50.028Z,98981.91
2022-09-26T20:50:53.150Z,98970.75
2022-09-26T20:55:01.784Z,98963.09
2022-09-26T20:59:14.442Z,98957.94
2022-09-26T21:03:21.493Z,98951.91
2022-09-26T21:07:35.343Z,98950.25
2022-09-26T21:11:37.686Z,98954.56
2022-09-26T21:15:45.129Z,98948.56
2022-09-26T21:19:57.343Z,98949.44
2022-09-26T21:24:33.716Z,98934.00
2022-09-26T21:28:35.553Z,98927.19
2022-09-26T21:32:37.785Z,98921.16
2022-09-26T21:36:43.683Z,98910.88
2022-09-26T21:40:49.356Z,98914.31
2022-09-26T21:45:00.279Z,98905.75
2022-09-26T21:49:04.140Z,98911.72
2022-09-26T21:53:17.990Z,98895.44
2022-09-26T21:57:32.393Z,98901.44
2022-09-26T22:01:36.316Z,98901.41
2022-09-26T22:05:41.934Z,98890.25
2022-09-26T22:09:46.486Z,98898.81
2022-09-26T22:13:48.774Z,98888.56
2022-09-26T22:17:54.091Z,98870.56
2022-09-26T22:22:00.877Z,98866.19
2022-09-26T22:26:05.575Z,98860.19
2022-09-26T22:30:10.610Z,98856.72
2022-09-26T22:34:18.468Z,98849.03
2022-09-26T22:38:23.973Z,98843.88
2022-09-26T22:42:28.813Z,98836.22
2022-09-26T22:46:34.568Z,98819.97
2022-09-26T22:50:38.050Z,98817.44
2022-09-26T22:54:40.413Z,98819.13
2022-09-26T22:58:48.041Z,98809.69
2022-09-26T23:02:50.460Z,98811.41
2022-09-26T23:06:55.081Z,98799.44
2022-09-26T23:10:57.458Z,98800.25
2022-09-26T23:14:59.768Z,98799.38
2022-09-26T23:19:02.015Z,98791.66
2022-09-26T23:23:13.902Z,98792.53
2022-09-26T23:27:22.272Z,98784.81
2022-09-26T23:31:30.901Z,98782.22
2022-09-26T23:35:33.344Z,98788.22
2022-09-26T23:39:39.017Z,98767.72
2022-09-26T23:43:49.876Z,98758.31
2022-09-26T23:47:52.329Z,98750.59
2022-09-26T23:51:54.792Z,98740.31
2022-09-26T23:56:05.713Z,98741.16
